Indian Gap, Texas
Current Conditions -  °F | °C
As of 6:15 AM on Thursday 29 Jan 2015 (Local Time) from KMNZ Reporting Station
Clear Clear  
Wind Chill: 51°   Ceiling: Unl
Heat Index: 51°   Visibility: 10mi
Dew Point: 40°   Wind: 9mph
Humidity: 66%   Direction: 250°WSW
Pressure: 30.14"   Gusts: NA
Location:  31.6401°N, 98.1198°W
Report Text: KMNZ 291215Z AUTO 25008KT 10SM CLR 11/05 A3014 RMK AO2 T01080047
Loading
Personal Weather Stations






























Interactive Weather Map New forecast layout! Learn more

10-Day Weather Forecast

Advertisements
Track Severe Weather on mobile